Thursday, November 23, 2017, 6:27 PM GMT
Back to Local

CYZX, Greenwood, N. S.

Location: , , Canada Lat: 44.983
Local Time: 6:27 PM GMT (18:27 GMT) Lon: -64.917
Time Zone: GMT Elev: 91 ft

Show me the last for .
Show Coded

Time T Td Feel RH Dir Speed Gust Alt SLP Vis Weather Sky Remarks
2017-11-23 18:00 37 27 26 64 280° 16 23 29.82 29.83 15 SCT025 None
2017-11-23 17:00 37 28 25 69 270° 20 28 29.81 29.82 15 BKN025 None
2017-11-23 16:00 36 27 23 69 280° 23 29 29.82 29.82 15 SCT021 None
2017-11-23 15:00 36 27 22 69 270° 23 35 29.82 29.82 15 SCT028 None
2017-11-23 14:00 37 27 24 64 310° 23 35 29.78 29.78 15 SCT024 None
2017-11-23 13:00 37 30 26 74 290° 12 25 29.74 29.75 15 BKN020 None
2017-11-23 12:30 37 32 27 80 280° 20 - 29.73 29.73 15 BKN019 None
2017-11-23 12:00 37 32 25 80 270° 20 28 29.70 29.70 15 BKN014 OVC025 None
2017-11-23 11:00 37 36 25 93 280° 18 29 29.65 29.65 15 OVC014 None
2017-11-23 10:10 39 36 27 86 280° 23 30 29.60 29.61 8 OVC014 None
2017-11-23 10:00 39 36 27 86 280° 23 33 29.60 29.60 3 -RA BR OVC012 None
2017-11-23 09:00 37 36 24 93 290° 22 36 29.54 29.54 3 -RA BR OVC011 Pressure rising rapidly
2017-11-23 08:00 41 39 29 93 310° 21 35 29.44 29.44 3 -RA BR BKN011 OVC020 None
2017-11-23 07:00 43 41 32 93 330° 21 33 29.38 29.38 3 -RA BR FEW006 BKN011 OVC018 None
2017-11-23 06:27 43 41 31 93 320° 25 39 29.37 29.37 3 -RA BR FEW006 OVC011 Pressure rising rapidly
2017-11-23 06:00 43 41 31 93 310° 22 36 29.34 29.34 2 -RA BR SCT006 OVC011 None
2017-11-23 05:30 45 43 34 93 320° 22 38 29.31 29.31 2 -RA BR FEW006 BKN011 OVC022 None
2017-11-23 05:13 54 54 - 100 310° 26 35 29.29 29.29 2 RA BR FEW006 OVC011 None
2017-11-23 05:00 55 54 - 93 280° 2 - 29.30 29.30 3 -RA BR BKN011 OVC030 Pressure falling rapidly
2017-11-23 04:32 55 54 - 93 - Calm - 29.33 29.33 3 -RA BR BKN011 OVC030 Pressure falling rapidly
2017-11-23 04:00 55 54 - 93 50° 9 - 29.39 29.39 2 RA BR SCT011 OVC030 Pressure falling rapidly
2017-11-23 03:31 55 54 - 93 340° 5 - 29.43 29.44 2 RA BR SCT012 BKN030 OVC050 Pressure falling rapidly
2017-11-23 03:00 55 55 - 100 120° 5 - 29.50 29.51 2 RA BR FEW018 BKN030 OVC050 Pressure falling rapidly
2017-11-23 02:21 55 55 - 100 130° 7 - 29.55 29.55 2 RA BR BKN027 OVC050 Pressure falling rapidly
2017-11-23 02:00 55 54 - 93 60° 6 - 29.57 29.57 3 -RA BR BKN030 OVC050 Pressure falling rapidly
2017-11-23 01:43 55 54 - 93 90° 5 - 29.59 29.59 3 -RA BR BKN030 OVC050 Pressure falling rapidly
2017-11-23 01:14 55 54 - 93 140° 7 - 29.63 29.64 3 RA BR SCT030 OVC080 Pressure falling rapidly
2017-11-23 01:00 55 54 - 93 170° 6 - 29.65 29.65 5 -SHRA BR FEW025 OVC085 Pressure falling rapidly
2017-11-23 00:00 55 54 - 93 170° 10 - 29.71 29.71 5 -SHRA BR FEW025 OVC085 None
2017-11-22 23:17 57 54 - 87 170° 10 - 29.74 29.74 8 -SHRA FEW025 OVC080 None
2017-11-22 23:00 57 54 - 87 140° 13 20 29.75 29.75 15 OVC110 None
2017-11-22 22:00 57 54 - 87 150° 12 17 29.79 29.80 15 OVC140 None
2017-11-22 21:00 55 54 - 93 160° 9 - 29.85 29.85 15 FEW060 OVC140 None
2017-11-22 20:00 55 52 - 87 70° 3 - 29.90 29.90 15 SCT060 OVC130 None
2017-11-22 19:29 55 52 - 87 130° 3 - 29.91 29.91 15 SCT035 OVC075 None
2017-11-22 19:00 57 52 - 82 170° 3 - 29.92 29.92 12 -SHRA SCT040 OVC075 None
2017-11-22 18:47 57 52 - 82 170° 6 - 29.93 29.93 10 -SHRA SCT040 OVC075 None

Support USWX by starting your Amazon purchase here.